Time;durP1;ratioP1;P1;durP2;ratioP2;P2;SDS_P1;SDS_P2;PMS_P1;PMS_P2;Temp;Humidity;BMP_temperature;BMP_pressure;BME280_temperature;BME280_humidity;BME280_pressure;Samples;Min_cycle;Max_cycle;Signal;HPM_P1;HPM_P2
2023/12/01 00:01:08;;;;;;;48.87;22.23;;;;;;;-1.04;100.00;96347.09;6172928;28;20203;-47
2023/12/01 00:04:10;;;;;;;48.80;22.90;;;;;;;-1.06;100.00;96356.16;6200282;28;20666;-46
2023/12/01 00:07:12;;;;;;;52.10;23.00;;;;;;;-1.03;100.00;96350.53;6200012;28;20270;-48
2023/12/01 00:10:14;;;;;;;57.70;23.67;;;;;;;-1.01;100.00;96350.31;6197403;28;20567;-47
2023/12/01 00:13:16;;;;;;;58.37;24.17;;;;;;;-1.06;100.00;96354.34;6196985;28;20304;-48
2023/12/01 00:16:18;;;;;;;55.30;24.20;;;;;;;-1.05;100.00;96355.16;6193514;28;20242;-48
2023/12/01 00:19:20;;;;;;;51.63;22.70;;;;;;;-1.10;100.00;96363.59;6194989;28;20233;-47
2023/12/01 00:22:23;;;;;;;54.20;23.60;;;;;;;-1.11;100.00;96358.56;6196111;28;20662;-46
2023/12/01 00:25:25;;;;;;;51.70;23.47;;;;;;;-1.12;100.00;96367.41;6198485;28;20201;-47
2023/12/01 00:28:27;;;;;;;50.07;23.17;;;;;;;-1.11;100.00;96369.81;6182358;28;20204;-45
2023/12/01 00:31:29;;;;;;;53.77;22.90;;;;;;;-1.09;100.00;96362.56;6181133;28;20210;-46
2023/12/01 00:34:31;;;;;;;51.87;23.60;;;;;;;-1.06;100.00;96374.44;6194037;28;20694;-46
2023/12/01 00:37:33;;;;;;;50.07;24.20;;;;;;;-1.11;100.00;96359.38;6176780;28;20876;-47
2023/12/01 00:40:36;;;;;;;53.13;23.23;;;;;;;-1.08;100.00;96358.97;6193817;28;20201;-47
2023/12/01 00:43:38;;;;;;;54.00;23.80;;;;;;;-1.06;100.00;96369.22;6194051;28;20662;-46
2023/12/01 00:46:40;;;;;;;54.67;23.43;;;;;;;-1.07;100.00;96365.00;6192975;28;20232;-49
2023/12/01 00:49:42;;;;;;;46.63;21.40;;;;;;;-1.10;100.00;96371.44;6199217;28;20664;-47
2023/12/01 00:52:44;;;;;;;41.17;22.07;;;;;;;-1.10;100.00;96379.25;6182414;28;20677;-48
2023/12/01 00:55:47;;;;;;;51.43;23.23;;;;;;;-1.06;100.00;96370.03;6199545;28;20199;-47
2023/12/01 00:58:49;;;;;;;53.17;23.47;;;;;;;-1.08;100.00;96353.75;6198740;28;20573;-50
2023/12/01 01:01:51;;;;;;;48.43;22.33;;;;;;;-1.05;100.00;96357.75;6197224;28;20193;-47
2023/12/01 01:04:53;;;;;;;47.77;22.10;;;;;;;-1.04;100.00;96365.38;6199013;28;20197;-49
2023/12/01 01:07:56;;;;;;;49.63;21.97;;;;;;;-1.05;100.00;96353.34;6196299;28;20196;-48
2023/12/01 01:10:58;;;;;;;37.77;20.17;;;;;;;-1.09;100.00;96333.03;6169674;28;20683;-48
2023/12/01 01:14:00;;;;;;;43.40;19.33;;;;;;;-0.94;100.00;96345.88;6170263;28;20214;-47
2023/12/01 01:17:02;;;;;;;36.37;18.43;;;;;;;-0.94;100.00;96341.47;6186998;28;20201;-48
2023/12/01 01:20:05;;;;;;;32.00;17.23;;;;;;;-0.92;100.00;96338.66;6175978;28;20205;-47
2023/12/01 01:23:07;;;;;;;39.63;18.77;;;;;;;-0.89;100.00;96346.09;6200409;28;20688;-48
2023/12/01 01:26:10;;;;;;;30.50;16.97;;;;;;;-0.87;100.00;96333.63;6196478;28;20229;-46
2023/12/01 01:29:12;;;;;;;37.50;17.67;;;;;;;-0.86;100.00;96328.19;6195538;28;20200;-46
2023/12/01 01:32:14;;;;;;;35.23;18.13;;;;;;;-0.84;100.00;96331.44;6175508;28;20713;-46
2023/12/01 01:35:16;;;;;;;31.70;15.60;;;;;;;-0.83;100.00;96338.25;6177985;28;20206;-47
2023/12/01 01:38:19;;;;;;;33.63;16.83;;;;;;;-0.82;100.00;96339.06;6196803;28;20569;-49
2023/12/01 01:41:21;;;;;;;36.97;18.27;;;;;;;-0.82;100.00;96332.00;6182699;28;20651;-48
2023/12/01 01:44:23;;;;;;;28.27;15.13;;;;;;;-0.99;100.00;96320.34;6168013;28;20198;-46
2023/12/01 01:47:26;;;;;;;38.33;19.00;;;;;;;-0.85;100.00;96340.25;6179581;28;20563;-47
2023/12/01 01:50:29;;;;;;;30.43;16.20;;;;;;;-0.87;100.00;96347.50;6197620;28;20186;-48
2023/12/01 01:53:31;;;;;;;32.83;16.90;;;;;;;-0.85;100.00;96329.00;6196855;28;20213;-45
2023/12/01 01:56:34;;;;;;;31.77;16.30;;;;;;;-0.92;100.00;96305.50;6176674;28;20694;-46
2023/12/01 01:59:36;;;;;;;33.27;16.13;;;;;;;-0.81;100.00;96317.13;6178845;28;20274;-46
2023/12/01 02:02:38;;;;;;;31.07;16.57;;;;;;;-0.81;100.00;96320.53;6197364;28;20194;-46
2023/12/01 02:05:40;;;;;;;31.13;16.03;;;;;;;-0.81;100.00;96317.94;6196425;28;20272;-48
2023/12/01 02:08:44;;;;;;;39.50;19.80;;;;;;;-0.80;100.00;96318.72;6179884;28;20686;-45
2023/12/01 02:11:46;;;;;;;33.17;18.03;;;;;;;-0.81;100.00;96319.75;6196871;28;20205;-47
2023/12/01 02:14:49;;;;;;;36.97;18.07;;;;;;;-0.81;100.00;96317.13;6195053;28;20209;-46
2023/12/01 02:17:51;;;;;;;39.60;20.37;;;;;;;-0.89;100.00;96318.13;6177683;28;20217;-48
2023/12/01 02:20:55;;;;;;;39.77;20.43;;;;;;;-0.87;100.00;96320.56;6196756;28;20204;-46
2023/12/01 02:23:57;;;;;;;42.33;20.33;;;;;;;-0.88;100.00;96308.50;6178491;28;20194;-47
2023/12/01 02:26:59;;;;;;;41.47;20.17;;;;;;;-0.85;100.00;96297.63;6196878;28;20196;-47
2023/12/01 02:30:01;;;;;;;37.50;19.80;;;;;;;-0.87;100.00;96300.44;6196241;28;20201;-47
2023/12/01 02:33:03;;;;;;;40.57;20.33;;;;;;;-0.89;100.00;96292.00;6182332;28;20251;-48
2023/12/01 02:36:08;;;;;;;35.40;18.80;;;;;;;-0.97;100.00;96286.19;6203231;28;20208;-47
2023/12/01 02:39:13;;;;;;;31.07;16.70;;;;;;;-0.89;100.00;96294.59;6218859;28;20221;-48
2023/12/01 02:42:15;;;;;;;31.90;16.87;;;;;;;-0.83;100.00;96293.00;6218783;28;20192;-47
2023/12/01 02:45:19;;;;;;;28.87;15.73;;;;;;;-0.82;100.00;96302.47;6203693;28;20215;-47
2023/12/01 02:48:22;;;;;;;30.53;16.67;;;;;;;-0.94;100.00;96299.63;6219292;28;20280;-47
2023/12/01 02:51:24;;;;;;;34.30;17.60;;;;;;;-0.80;100.00;96306.47;6219891;28;20189;-46
2023/12/01 02:54:26;;;;;;;40.03;20.37;;;;;;;-0.80;100.00;96309.06;6202487;28;21607;-48
2023/12/01 02:57:28;;;;;;;33.40;17.10;;;;;;;-0.81;100.00;96299.63;6221547;28;20196;-47
2023/12/01 03:00:30;;;;;;;25.70;13.83;;;;;;;-0.80;100.00;96303.03;6202361;28;20649;-46
2023/12/01 03:03:32;;;;;;;29.93;15.67;;;;;;;-0.80;100.00;96296.00;6202468;28;20207;-46
2023/12/01 03:06:35;;;;;;;28.77;17.20;;;;;;;-0.78;100.00;96290.59;6221237;28;20196;-47
2023/12/01 03:09:37;;;;;;;30.73;16.70;;;;;;;-0.79;100.00;96288.97;6202388;28;20200;-47
2023/12/01 03:12:42;;;;;;;31.30;16.80;;;;;;;-0.78;100.00;96293.22;6189783;28;20823;-46
2023/12/01 03:15:44;;;;;;;34.80;18.87;;;;;;;-0.80;100.00;96296.00;6202435;28;20271;-46
2023/12/01 03:18:46;;;;;;;39.73;20.10;;;;;;;-0.81;100.00;96281.31;6199916;28;20629;-48
2023/12/01 03:21:48;;;;;;;31.60;16.87;;;;;;;-0.83;100.00;96274.72;6185468;28;20823;-46
2023/12/01 03:24:50;;;;;;;40.27;19.67;;;;;;;-0.83;100.00;96283.34;6212373;28;20197;-47
2023/12/01 03:27:52;;;;;;;34.07;19.97;;;;;;;-0.83;100.00;96285.97;6202176;28;20582;-49
2023/12/01 03:30:55;;;;;;;33.10;18.17;;;;;;;-0.82;100.00;96286.78;6219032;28;20204;-47
2023/12/01 03:34:06;;;;;;;35.70;19.03;;;;;;;-0.83;100.00;96280.75;6271720;28;20577;-46
2023/12/01 03:37:08;;;;;;;37.63;19.57;;;;;;;-0.86;100.00;96278.53;6253484;28;20741;-46
2023/12/01 03:40:13;;;;;;;31.30;16.93;;;;;;;-0.83;100.00;96272.09;6252710;28;20191;-47
2023/12/01 03:43:16;;;;;;;34.50;18.23;;;;;;;-0.83;100.00;96282.56;6254156;28;20190;-47
2023/12/01 03:46:18;;;;;;;34.60;18.20;;;;;;;-0.82;100.00;96284.16;6253727;28;20200;-49
2023/12/01 03:49:20;;;;;;;31.60;17.47;;;;;;;-0.80;100.00;96285.53;6256933;28;20210;-48
2023/12/01 03:52:22;;;;;;;32.90;16.17;;;;;;;-0.79;100.00;96270.66;6242352;28;20219;-48
2023/12/01 03:55:24;;;;;;;32.97;16.90;;;;;;;-0.77;100.00;96283.53;6285520;28;20200;-48
2023/12/01 03:58:26;;;;;;;35.20;20.97;;;;;;;-0.79;100.00;96284.56;6247735;28;20279;-49
2023/12/01 04:01:29;;;;;;;38.07;20.90;;;;;;;-0.80;100.00;96282.94;6244639;28;20245;-47
2023/12/01 04:04:31;;;;;;;36.63;18.77;;;;;;;-0.81;100.00;96278.72;6245978;28;20196;-47
2023/12/01 04:07:34;;;;;;;31.67;17.93;;;;;;;-0.79;100.00;96278.50;6251525;28;20199;-47
2023/12/01 04:10:36;;;;;;;32.97;18.70;;;;;;;-0.79;100.00;96276.72;6249067;28;20202;-47
2023/12/01 04:13:39;;;;;;;32.23;16.70;;;;;;;-0.79;100.00;96274.09;6250233;28;20302;-46
2023/12/01 04:16:42;;;;;;;33.03;18.30;;;;;;;-0.77;100.00;96267.84;6250037;28;20604;-49
2023/12/01 04:19:44;;;;;;;28.07;15.83;;;;;;;-0.76;100.00;96282.53;6253514;28;20196;-46
2023/12/01 04:22:51;;;;;;;32.60;17.40;;;;;;;-0.74;100.00;96280.50;6280968;28;20626;-47
2023/12/01 04:25:54;;;;;;;31.63;17.57;;;;;;;-0.75;100.00;96277.09;6254740;28;20254;-46
2023/12/01 04:28:56;;;;;;;27.17;15.57;;;;;;;-0.72;100.00;96289.75;6242144;28;20291;-49
2023/12/01 04:31:58;;;;;;;30.43;16.63;;;;;;;-0.71;100.00;96288.75;6248759;28;20243;-47
2023/12/01 04:35:03;;;;;;;34.17;17.77;;;;;;;-0.72;100.00;96297.59;6243366;28;20202;-49
2023/12/01 04:38:05;;;;;;;29.13;15.47;;;;;;;-0.71;100.00;96298.41;6244600;28;20246;-48
2023/12/01 04:41:09;;;;;;;30.90;18.50;;;;;;;-0.70;100.00;96294.78;6245745;28;20250;-47
2023/12/01 04:44:12;;;;;;;38.93;19.87;;;;;;;-0.71;100.00;96278.28;6233801;28;20893;-46
2023/12/01 04:47:14;;;;;;;31.10;17.00;;;;;;;-0.75;100.00;96269.25;6228380;28;20608;-49
2023/12/01 04:50:18;;;;;;;33.83;18.47;;;;;;;-0.71;100.00;96264.41;6232460;28;20192;-46
2023/12/01 04:53:20;;;;;;;33.17;18.20;;;;;;;-0.73;100.00;96254.19;6234647;28;20211;-47
2023/12/01 04:56:22;;;;;;;38.13;19.63;;;;;;;-0.71;100.00;96253.97;6236518;28;20211;-48
2023/12/01 04:59:26;;;;;;;37.00;19.33;;;;;;;-0.71;100.00;96259.19;6231750;28;20247;-47
2023/12/01 05:02:28;;;;;;;31.60;17.83;;;;;;;-0.70;100.00;96268.63;6230164;28;20192;-47
2023/12/01 05:05:32;;;;;;;30.50;16.20;;;;;;;-0.69;100.00;96283.31;6229569;28;20275;-46
2023/12/01 05:08:34;;;;;;;41.27;21.40;;;;;;;-0.70;100.00;96289.56;6231097;28;20573;-46
2023/12/01 05:11:36;;;;;;;35.77;20.37;;;;;;;-0.70;100.00;96289.56;6229739;28;20197;-48
2023/12/01 05:14:38;;;;;;;36.03;19.70;;;;;;;-0.70;100.00;96298.19;6225086;28;20209;-46
2023/12/01 05:17:42;;;;;;;30.47;18.07;;;;;;;-0.70;100.00;96300.00;6222797;28;20736;-45
2023/12/01 05:20:45;;;;;;;29.00;15.33;;;;;;;-0.70;100.00;96305.25;6225702;28;20283;-47
2023/12/01 05:23:50;;;;;;;32.30;17.90;;;;;;;-0.68;100.00;96305.84;6227706;28;20200;-46
2023/12/01 05:26:52;;;;;;;28.63;16.93;;;;;;;-0.66;100.00;96320.31;6224821;28;20203;-47
2023/12/01 05:29:56;;;;;;;32.23;16.33;;;;;;;-0.66;100.00;96312.47;6225860;28;20192;-46
2023/12/01 05:32:58;;;;;;;32.40;19.47;;;;;;;-0.63;100.00;96306.03;6225899;28;20228;-46
2023/12/01 05:36:01;;;;;;;33.00;18.53;;;;;;;-0.64;100.00;96304.41;6223998;28;20196;-48
2023/12/01 05:39:12;;;;;;;33.60;19.70;;;;;;;-0.65;100.00;96301.00;6235054;28;20195;-48
2023/12/01 05:42:15;;;;;;;38.03;19.93;;;;;;;-0.65;100.00;96305.44;6237617;28;20668;-47
2023/12/01 05:45:17;;;;;;;37.53;21.53;;;;;;;-0.68;100.00;96301.44;6236599;28;20203;-47
2023/12/01 05:48:19;;;;;;;34.43;20.03;;;;;;;-0.67;100.00;96308.25;6238432;28;20204;-45
2023/12/01 05:51:21;;;;;;;32.87;19.70;;;;;;;-0.63;100.00;96313.91;6237193;28;20199;-48
2023/12/01 05:54:23;;;;;;;37.83;20.83;;;;;;;-0.61;100.00;96322.31;6242393;28;20203;-48
2023/12/01 05:57:25;;;;;;;35.53;20.17;;;;;;;-0.61;100.00;96312.66;6230577;28;20204;-46
2023/12/01 06:00:29;;;;;;;38.57;21.33;;;;;;;-0.62;100.00;96307.66;6226952;28;20219;-47
2023/12/01 06:03:32;;;;;;;33.20;20.23;;;;;;;-0.59;100.00;96315.06;6222522;28;20197;-48
2023/12/01 06:06:34;;;;;;;33.67;19.17;;;;;;;-0.62;100.00;96318.91;6224141;28;20675;-47
2023/12/01 06:09:36;;;;;;;37.10;20.40;;;;;;;-0.76;100.00;96290.38;6229719;28;20679;-47
2023/12/01 06:12:40;;;;;;;34.77;19.47;;;;;;;-0.58;100.00;96324.53;6231639;28;20214;-47
2023/12/01 06:15:42;;;;;;;29.53;17.47;;;;;;;-0.66;100.00;96295.97;6232886;28;20660;-46
2023/12/01 06:18:44;;;;;;;33.57;19.83;;;;;;;-0.55;100.00;96308.41;6232669;28;20204;-47
2023/12/01 06:21:46;;;;;;;42.67;22.47;;;;;;;-0.60;100.00;96297.78;6232201;28;20192;-46
2023/12/01 06:24:49;;;;;;;39.13;20.50;;;;;;;-0.55;100.00;96311.84;6237090;28;20673;-47
2023/12/01 06:27:51;;;;;;;34.53;18.37;;;;;;;-0.55;100.00;96322.28;6225339;28;20211;-46
2023/12/01 06:30:53;;;;;;;33.80;18.93;;;;;;;-0.54;100.00;96317.91;6223062;28;20208;-46
2023/12/01 06:33:55;;;;;;;38.40;20.67;;;;;;;-0.53;100.00;96325.53;6234020;28;20629;-47
2023/12/01 06:36:59;;;;;;;44.57;23.03;;;;;;;-0.51;100.00;96333.16;6232979;28;20192;-47
2023/12/01 06:40:04;;;;;;;39.27;21.37;;;;;;;-0.51;100.00;96348.84;6228598;28;20238;-46
2023/12/01 06:43:09;;;;;;;33.67;18.60;;;;;;;-0.49;100.00;96348.63;6224882;28;20196;-49
2023/12/01 06:46:15;;;;;;;37.77;21.30;;;;;;;-0.49;100.00;96354.72;6223066;28;20192;-50
2023/12/01 06:49:19;;;;;;;41.73;20.67;;;;;;;-0.47;100.00;96360.53;6226067;28;20201;-49
2023/12/01 06:52:21;;;;;;;35.63;19.57;;;;;;;-0.46;100.00;96367.34;6230239;28;20208;-48
2023/12/01 06:55:25;;;;;;;38.10;19.10;;;;;;;-0.49;100.00;96362.56;6230202;28;20307;-50
2023/12/01 06:58:27;;;;;;;34.53;18.03;;;;;;;-0.45;100.00;96368.97;6229600;28;20695;-46
2023/12/01 07:01:30;;;;;;;44.53;22.00;;;;;;;-0.47;100.00;96370.19;6228330;28;20206;-49
2023/12/01 07:04:32;;;;;;;39.23;21.80;;;;;;;-0.41;100.00;96371.97;6233522;28;20575;-46
2023/12/01 07:07:37;;;;;;;34.77;18.93;;;;;;;-0.40;100.00;96368.34;6226214;28;20212;-48
2023/12/01 07:10:39;;;;;;;37.10;19.83;;;;;;;-0.38;100.00;96364.53;6226816;28;20197;-46
2023/12/01 07:13:42;;;;;;;46.37;22.73;;;;;;;-0.34;100.00;96375.41;6223701;28;20219;-46
2023/12/01 07:16:44;;;;;;;38.73;21.00;;;;;;;-0.31;100.00;96385.44;6223778;28;20665;-46
2023/12/01 07:19:46;;;;;;;47.43;24.07;;;;;;;-0.31;100.00;96386.25;6222322;28;20247;-48
2023/12/01 07:22:51;;;;;;;48.47;21.97;;;;;;;-0.29;100.00;96379.00;6218759;28;20193;-49
2023/12/01 07:25:53;;;;;;;40.93;20.83;;;;;;;-0.26;100.00;96370.72;6222975;28;20196;-46
2023/12/01 07:28:55;;;;;;;44.90;21.43;;;;;;;-0.21;100.00;96370.09;6224305;28;20204;-46
2023/12/01 07:31:59;;;;;;;33.87;20.03;;;;;;;-0.18;100.00;96376.75;6228880;28;20236;-47
2023/12/01 07:35:01;;;;;;;47.13;23.60;;;;;;;-0.21;100.00;96374.53;6237212;28;20223;-48
2023/12/01 07:38:04;;;;;;;36.13;19.80;;;;;;;-0.11;100.00;96390.63;6227961;28;20279;-48
2023/12/01 07:41:07;;;;;;;35.33;20.13;;;;;;;-0.09;100.00;96392.03;6227489;28;20608;-49
2023/12/01 07:44:09;;;;;;;31.47;18.37;;;;;;;-0.07;100.00;96392.63;6227021;28;20271;-47
2023/12/01 07:47:11;;;;;;;44.63;22.97;;;;;;;-0.06;100.00;96396.84;6227237;28;20196;-46
2023/12/01 07:50:15;;;;;;;45.60;24.30;;;;;;;-0.06;100.00;96385.56;6237617;28;20445;-47
2023/12/01 07:53:17;;;;;;;46.73;23.83;;;;;;;-0.10;100.00;96386.97;6235161;28;20742;-48
2023/12/01 07:56:23;;;;;;;45.53;23.90;;;;;;;-0.10;100.00;96373.91;6229935;28;20232;-47
2023/12/01 07:59:25;;;;;;;38.07;21.77;;;;;;;-0.09;100.00;96365.06;6223007;28;20679;-46
2023/12/01 08:02:27;;;;;;;45.73;24.23;;;;;;;-0.09;100.00;96367.69;6233992;28;20196;-48
2023/12/01 08:05:29;;;;;;;42.47;23.03;;;;;;;-0.10;100.00;96373.91;6222508;28;20200;-47
2023/12/01 08:08:31;;;;;;;41.33;22.10;;;;;;;-0.06;100.00;96381.13;6226390;28;20207;-47
2023/12/01 08:11:40;;;;;;;43.20;21.90;;;;;;;-0.38;100.00;96309.59;6229851;28;20575;-49
2023/12/01 08:14:42;;;;;;;39.17;21.50;;;;;;;-0.03;100.00;96374.69;6228927;28;20219;-50
2023/12/01 08:17:45;;;;;;;38.17;20.10;;;;;;;-0.01;100.00;96368.22;6228572;28;20192;-47
2023/12/01 08:20:49;;;;;;;43.17;24.07;;;;;;;-0.04;100.00;96360.00;6235102;28;20356;-49
2023/12/01 08:23:51;;;;;;;38.23;22.90;;;;;;;-0.05;100.00;96353.97;6236226;28;20184;-48
2023/12/01 08:26:53;;;;;;;45.53;24.03;;;;;;;-0.22;100.00;96339.72;6233777;28;20813;-47
2023/12/01 08:29:55;;;;;;;46.27;24.30;;;;;;;-0.14;100.00;96336.88;6235756;28;20196;-48
2023/12/01 08:32:58;;;;;;;45.30;23.63;;;;;;;-0.09;100.00;96349.34;6231934;28;20232;-47
2023/12/01 08:36:01;;;;;;;47.60;24.67;;;;;;;0.08;100.00;96368.00;6223588;28;20320;-47
2023/12/01 08:39:04;;;;;;;50.70;24.80;;;;;;;0.14;100.00;96369.78;6228505;28;20207;-48
2023/12/01 08:42:06;;;;;;;42.03;22.23;;;;;;;0.16;100.00;96383.50;6222114;28;20203;-52
2023/12/01 08:45:09;;;;;;;37.77;22.57;;;;;;;0.21;100.00;96378.44;6230060;28;20204;-48
2023/12/01 08:48:11;;;;;;;38.90;23.17;;;;;;;0.24;100.00;96385.84;6230773;28;20211;-47
2023/12/01 08:51:13;;;;;;;39.07;22.33;;;;;;;0.27;100.00;96392.50;6231232;28;20200;-49
2023/12/01 08:54:15;;;;;;;42.57;21.10;;;;;;;0.30;100.00;96399.97;6232814;28;20493;-49
2023/12/01 08:57:23;;;;;;;42.77;22.80;;;;;;;0.28;100.00;96399.34;6231907;28;20622;-48
2023/12/01 09:00:25;;;;;;;40.03;21.03;;;;;;;0.29;100.00;96398.31;6231505;28;20192;-49
2023/12/01 09:03:27;;;;;;;46.00;23.73;;;;;;;0.27;100.00;96401.16;6230619;28;20199;-49
2023/12/01 09:06:29;;;;;;;40.93;24.30;;;;;;;0.24;100.00;96399.75;6231977;28;20188;-50
2023/12/01 09:09:31;;;;;;;38.73;22.60;;;;;;;0.27;100.00;96403.78;6225420;28;20193;-48
2023/12/01 09:12:34;;;;;;;41.27;22.80;;;;;;;0.28;100.00;96394.91;6230448;28;20277;-49
2023/12/01 09:15:37;;;;;;;42.53;23.57;;;;;;;0.29;100.00;96401.75;6226489;28;20220;-47
2023/12/01 09:18:39;;;;;;;38.30;21.90;;;;;;;0.29;100.00;96395.72;6226426;28;20200;-48
2023/12/01 09:21:42;;;;;;;52.37;27.30;;;;;;;0.25;100.00;96383.03;6229745;28;20729;-47
2023/12/01 09:24:45;;;;;;;49.07;26.40;;;;;;;0.19;100.00;96386.47;6227131;28;20675;-47
2023/12/01 09:27:47;;;;;;;57.33;29.27;;;;;;;0.17;100.00;96385.88;6230292;28;20200;-47
2023/12/01 09:30:49;;;;;;;53.00;26.53;;;;;;;0.15;100.00;96385.31;6220890;28;20231;-48
2023/12/01 09:33:51;;;;;;;48.50;25.83;;;;;;;0.17;100.00;96380.66;6226977;28;20235;-48
2023/12/01 09:36:55;;;;;;;51.70;26.93;;;;;;;0.21;100.00;96370.56;6226087;28;20899;-49
2023/12/01 09:39:57;;;;;;;48.30;27.33;;;;;;;0.23;100.00;96364.09;6231496;28;20196;-51
2023/12/01 09:42:59;;;;;;;48.97;25.90;;;;;;;0.06;100.00;96336.00;6228385;28;20672;-51
2023/12/01 09:46:02;;;;;;;49.90;25.30;;;;;;;0.27;100.00;96366.31;6225794;28;20311;-50
2023/12/01 09:49:05;;;;;;;48.73;24.50;;;;;;;0.20;100.00;96359.31;6226544;28;20199;-51
2023/12/01 09:52:08;;;;;;;54.63;28.00;;;;;;;0.21;100.00;96358.28;6225590;28;20661;-50
2023/12/01 09:55:10;;;;;;;53.30;27.70;;;;;;;0.13;100.00;96334.16;6223923;28;20660;-51
2023/12/01 09:58:14;;;;;;;47.87;25.33;;;;;;;0.27;100.00;96332.28;6226380;28;20244;-48
2023/12/01 10:01:17;;;;;;;46.67;23.57;;;;;;;0.29;100.00;96338.09;6228277;28;20279;-49
2023/12/01 10:04:19;;;;;;;41.30;22.93;;;;;;;0.33;100.00;96334.03;6232452;28;20204;-49
2023/12/01 10:07:23;;;;;;;46.80;25.63;;;;;;;0.36;100.00;96333.63;6230538;28;20748;-47
2023/12/01 10:10:26;;;;;;;47.20;24.53;;;;;;;0.33;100.00;96318.31;6230272;28;20188;-48
2023/12/01 10:13:41;;;;;;;44.87;24.93;;;;;;;0.38;100.00;96323.72;6233013;28;20212;-49
2023/12/01 10:16:43;;;;;;;38.50;21.77;;;;;;;0.37;100.00;96322.94;6228758;28;20289;-51
2023/12/01 10:19:47;;;;;;;37.57;20.73;;;;;;;0.44;100.00;96322.88;6233007;28;20653;-49
2023/12/01 10:22:49;;;;;;;46.67;22.13;;;;;;;0.29;100.00;96296.97;6235327;28;20224;-49
2023/12/01 10:25:52;;;;;;;44.40;25.10;;;;;;;0.45;100.00;96322.69;6236762;28;20321;-47
2023/12/01 10:28:57;;;;;;;57.47;27.23;;;;;;;0.43;100.00;96324.69;6238633;28;20261;-50
2023/12/01 10:32:04;;;;;;;47.10;25.37;;;;;;;0.41;100.00;96334.59;6234894;28;20235;-48
2023/12/01 10:35:07;;;;;;;51.10;26.57;;;;;;;0.37;100.00;96341.28;6227381;28;20600;-47
2023/12/01 10:38:09;;;;;;;47.80;26.07;;;;;;;0.34;100.00;96340.88;6227020;28;20200;-46
2023/12/01 10:41:15;;;;;;;49.37;25.13;;;;;;;0.30;100.00;96347.56;6224557;28;20235;-48
2023/12/01 10:44:18;;;;;;;46.67;25.67;;;;;;;0.27;100.00;96351.41;6227742;28;20220;-48
2023/12/01 10:47:21;;;;;;;45.60;26.00;;;;;;;0.25;100.00;96340.34;6228655;28;20203;-46
2023/12/01 10:50:23;;;;;;;40.10;23.57;;;;;;;0.25;100.00;96337.72;6228682;28;20192;-46
2023/12/01 10:53:28;;;;;;;39.40;22.87;;;;;;;0.25;100.00;96343.75;6231024;28;20266;-47
2023/12/01 10:56:35;;;;;;;35.83;21.03;;;;;;;0.07;100.00;96303.56;6231086;28;20199;-47
2023/12/01 10:59:38;;;;;;;38.20;23.50;;;;;;;0.28;100.00;96332.03;6232878;28;20192;-47
2023/12/01 11:02:41;;;;;;;42.57;23.03;;;;;;;0.28;100.00;96323.38;6228393;28;20204;-46
2023/12/01 11:05:44;;;;;;;42.83;23.77;;;;;;;0.26;100.00;96318.38;6228401;28;20222;-46
2023/12/01 11:09:05;;;;;;;41.73;22.27;;;;;;;0.28;100.00;96321.56;6227891;28;20205;-46
2023/12/01 11:12:24;;;;;;;37.90;21.00;;;;;;;0.22;100.00;96323.22;6226268;28;20185;-47
2023/12/01 11:15:30;;;;;;;37.37;21.70;;;;;;;0.27;100.00;96322.59;6226071;28;20220;-46
2023/12/01 11:18:32;;;;;;;36.67;21.67;;;;;;;0.27;100.00;96308.69;6224851;28;20208;-46
2023/12/01 11:21:34;;;;;;;31.70;19.03;;;;;;;0.28;100.00;96310.28;6226224;28;20735;-47
2023/12/01 11:24:45;;;;;;;35.40;18.10;;;;;;;0.28;100.00;96305.84;6226466;28;20184;-47
2023/12/01 11:27:47;;;;;;;29.47;16.80;;;;;;;0.28;100.00;96305.06;6227035;28;20724;-50
2023/12/01 11:31:13;;;;;;;33.27;18.30;;;;;;;0.32;100.00;96307.03;6227683;28;20199;-47
2023/12/01 11:34:15;;;;;;;31.70;16.90;;;;;;;0.19;100.00;96286.16;6224327;28;20247;-47
2023/12/01 11:37:18;;;;;;;27.30;16.77;;;;;;;0.34;100.00;96301.59;6225198;28;20683;-47
2023/12/01 11:40:24;;;;;;;28.17;16.37;;;;;;;0.31;100.00;96300.22;6227688;28;20196;-46
2023/12/01 11:43:27;;;;;;;35.40;19.60;;;;;;;0.16;100.00;96284.78;6224041;28;20197;-46
2023/12/01 11:46:41;;;;;;;35.57;20.93;;;;;;;0.29;100.00;96290.94;6227276;28;20296;-45
2023/12/01 11:49:50;;;;;;;31.33;19.33;;;;;;;0.30;100.00;96297.81;6224862;28;20603;-45
2023/12/01 11:52:53;;;;;;;38.87;21.17;;;;;;;0.31;100.00;96296.78;6225108;28;20208;-46
2023/12/01 11:55:55;;;;;;;36.13;20.43;;;;;;;0.28;100.00;96294.59;6227345;28;20188;-46
2023/12/01 11:58:57;;;;;;;34.23;18.97;;;;;;;0.31;100.00;96288.94;6230554;28;20197;-46
2023/12/01 12:01:59;;;;;;;36.93;19.80;;;;;;;0.32;100.00;96306.25;6224697;28;20240;-46
2023/12/01 12:05:05;;;;;;;30.27;18.83;;;;;;;0.30;100.00;96316.16;6225175;28;20212;-47
2023/12/01 12:08:10;;;;;;;32.17;18.37;;;;;;;0.28;100.00;96328.63;6234150;28;20204;-45
2023/12/01 12:11:13;;;;;;;36.30;19.97;;;;;;;0.25;100.00;96327.25;6233045;28;20484;-46
2023/12/01 12:14:15;;;;;;;51.83;26.17;;;;;;;0.27;100.00;96313.94;6237050;28;20246;-46
2023/12/01 12:17:21;;;;;;;40.03;22.87;;;;;;;0.24;100.00;96323.00;6234857;28;20632;-46
2023/12/01 12:20:24;;;;;;;39.90;21.37;;;;;;;0.24;100.00;96313.31;6241227;28;20681;-49
2023/12/01 12:23:27;;;;;;;40.53;21.97;;;;;;;0.25;100.00;96307.09;6235825;28;20196;-46
2023/12/01 12:26:30;;;;;;;42.40;23.03;;;;;;;0.23;100.00;96298.63;6238951;28;20578;-45
2023/12/01 12:29:33;;;;;;;41.20;23.57;;;;;;;0.21;100.00;96311.16;6241819;28;20192;-49
2023/12/01 12:32:36;;;;;;;41.47;22.97;;;;;;;0.20;100.00;96308.75;6242633;28;20263;-45
2023/12/01 12:35:38;;;;;;;36.97;21.33;;;;;;;0.21;100.00;96305.09;6226614;28;20208;-46
2023/12/01 12:38:40;;;;;;;37.63;22.60;;;;;;;0.22;100.00;96296.22;6229382;28;20192;-49
2023/12/01 12:41:52;;;;;;;36.13;21.40;;;;;;;0.08;100.00;96277.16;6226790;28;20196;-49
2023/12/01 12:44:55;;;;;;;39.87;23.73;;;;;;;0.21;100.00;96292.81;6233195;28;20197;-49
2023/12/01 12:48:08;;;;;;;40.93;23.03;;;;;;;0.21;100.00;96284.97;6231635;28;20204;-45
2023/12/01 12:51:13;;;;;;;37.53;22.23;;;;;;;0.16;100.00;96276.13;6232068;28;20299;-49
2023/12/01 12:54:15;;;;;;;36.57;21.13;;;;;;;0.23;100.00;96293.38;6234145;28;20212;-48
2023/12/01 12:57:18;;;;;;;40.00;22.40;;;;;;;0.25;100.00;96283.53;6236200;28;20193;-48
2023/12/01 13:00:20;;;;;;;37.60;20.70;;;;;;;0.25;100.00;96286.16;6236317;28;20637;-46
2023/12/01 13:03:22;;;;;;;41.37;23.23;;;;;;;0.27;100.00;96283.31;6235499;28;20203;-48
2023/12/01 13:06:25;;;;;;;37.47;22.07;;;;;;;0.27;100.00;96282.50;6233608;28;20211;-46
2023/12/01 13:09:27;;;;;;;45.33;24.97;;;;;;;0.25;100.00;96309.72;6236103;28;20335;-46
2023/12/01 13:12:29;;;;;;;39.67;22.97;;;;;;;0.23;100.00;96303.88;6236173;28;20200;-46
2023/12/01 13:15:31;;;;;;;37.67;22.63;;;;;;;0.23;100.00;96303.88;6227712;28;20221;-48
2023/12/01 13:18:35;;;;;;;39.80;23.00;;;;;;;0.23;100.00;96292.59;6223373;28;20329;-46
2023/12/01 13:21:37;;;;;;;37.07;22.57;;;;;;;0.16;100.00;96284.78;6229725;28;20200;-46
2023/12/01 13:24:39;;;;;;;37.63;23.03;;;;;;;0.20;100.00;96293.03;6228575;28;20199;-47
2023/12/01 13:27:41;;;;;;;32.67;19.97;;;;;;;0.20;100.00;96293.84;6230497;28;20203;-48
2023/12/01 13:30:43;;;;;;;38.80;22.50;;;;;;;0.21;100.00;96284.97;6232463;28;20188;-47
2023/12/01 13:33:45;;;;;;;32.10;18.90;;;;;;;0.22;100.00;96294.41;6232959;28;20246;-47
2023/12/01 13:36:50;;;;;;;20.93;13.10;;;;;;;0.21;100.00;96281.53;6229253;28;20215;-45
2023/12/01 13:39:53;;;;;;;16.87;11.27;;;;;;;0.18;100.00;96295.84;6229987;28;20200;-46
2023/12/01 13:42:56;;;;;;;15.17;10.93;;;;;;;0.05;100.00;96253.22;6228151;28;20204;-46
2023/12/01 13:45:58;;;;;;;13.93;10.20;;;;;;;0.15;100.00;96280.56;6229952;28;20189;-47
2023/12/01 13:49:00;;;;;;;16.20;10.97;;;;;;;0.12;100.00;96273.13;6225524;28;20201;-46
2023/12/01 13:52:03;;;;;;;16.83;10.77;;;;;;;0.14;100.00;96278.13;6225821;28;20192;-47
2023/12/01 13:55:06;;;;;;;18.23;11.53;;;;;;;0.11;100.00;96284.63;6232124;28;20215;-48